sensor_id;sensor_type;location;lat;lon;timestamp;pressure;altitude;pressure_sealevel;temperature;humidity
47815;BME280;33579;50.058;18.130;2022-10-31T00:01:00;99617.94;;;10.95;100.00
47815;BME280;33579;50.058;18.130;2022-10-31T00:02:02;99621.16;;;10.99;100.00
47815;BME280;33579;50.058;18.130;2022-10-31T00:03:03;99615.56;;;10.92;100.00
47815;BME280;33579;50.058;18.130;2022-10-31T00:04:05;99615.44;;;10.93;100.00
47815;BME280;33579;50.058;18.130;2022-10-31T00:05:07;99611.94;;;10.93;100.00
47815;BME280;33579;50.058;18.130;2022-10-31T00:06:09;99613.50;;;10.95;100.00
47815;BME280;33579;50.058;18.130;2022-10-31T00:07:10;99616.00;;;10.97;100.00
47815;BME280;33579;50.058;18.130;2022-10-31T00:08:12;99611.00;;;10.94;100.00
47815;BME280;33579;50.058;18.130;2022-10-31T00:09:13;99615.88;;;10.99;100.00
47815;BME280;33579;50.058;18.130;2022-10-31T00:10:15;99615.81;;;10.89;100.00
47815;BME280;33579;50.058;18.130;2022-10-31T00:11:17;99626.38;;;10.77;100.00
47815;BME280;33579;50.058;18.130;2022-10-31T00:12:18;99616.22;;;10.73;100.00
47815;BME280;33579;50.058;18.130;2022-10-31T00:13:20;99620.84;;;10.80;100.00
47815;BME280;33579;50.058;18.130;2022-10-31T00:14:22;99618.34;;;10.79;100.00
47815;BME280;33579;50.058;18.130;2022-10-31T00:15:24;99619.44;;;10.76;100.00
47815;BME280;33579;50.058;18.130;2022-10-31T00:16:26;99616.22;;;10.73;100.00
47815;BME280;33579;50.058;18.130;2022-10-31T00:17:27;99617.19;;;10.72;100.00
47815;BME280;33579;50.058;18.130;2022-10-31T00:18:29;99625.31;;;10.68;100.00
47815;BME280;33579;50.058;18.130;2022-10-31T00:19:31;99612.03;;;10.70;100.00
47815;BME280;33579;50.058;18.130;2022-10-31T00:20:33;99621.38;;;10.74;100.00
47815;BME280;33579;50.058;18.130;2022-10-31T00:21:35;99626.22;;;10.79;100.00
47815;BME280;33579;50.058;18.130;2022-10-31T00:22:36;99623.13;;;10.85;100.00
47815;BME280;33579;50.058;18.130;2022-10-31T00:23:38;99622.84;;;10.88;100.00
47815;BME280;33579;50.058;18.130;2022-10-31T00:24:39;99618.88;;;10.94;100.00
47815;BME280;33579;50.058;18.130;2022-10-31T00:25:41;99609.06;;;10.96;100.00
47815;BME280;33579;50.058;18.130;2022-10-31T00:26:42;99618.41;;;11.00;100.00
47815;BME280;33579;50.058;18.130;2022-10-31T00:27:44;99619.59;;;10.96;100.00
47815;BME280;33579;50.058;18.130;2022-10-31T00:28:46;99615.63;;;11.02;100.00
47815;BME280;33579;50.058;18.130;2022-10-31T00:29:47;99615.50;;;11.03;100.00
47815;BME280;33579;50.058;18.130;2022-10-31T00:30:49;99616.50;;;10.91;100.00
47815;BME280;33579;50.058;18.130;2022-10-31T00:31:52;99623.47;;;10.80;100.00
47815;BME280;33579;50.058;18.130;2022-10-31T00:32:53;99618.84;;;10.73;100.00
47815;BME280;33579;50.058;18.130;2022-10-31T00:33:55;99622.81;;;10.67;100.00
47815;BME280;33579;50.058;18.130;2022-10-31T00:34:58;99626.88;;;10.60;100.00
47815;BME280;33579;50.058;18.130;2022-10-31T00:36:00;99619.00;;;10.48;100.00
47815;BME280;33579;50.058;18.130;2022-10-31T00:37:02;99622.22;;;10.40;100.00
47815;BME280;33579;50.058;18.130;2022-10-31T00:38:03;99622.59;;;10.36;100.00
47815;BME280;33579;50.058;18.130;2022-10-31T00:39:05;99623.91;;;10.30;100.00
47815;BME280;33579;50.058;18.130;2022-10-31T00:40:07;99631.69;;;10.20;100.00
47815;BME280;33579;50.058;18.130;2022-10-31T00:41:10;99620.34;;;10.20;100.00
47815;BME280;33579;50.058;18.130;2022-10-31T00:42:15;99627.63;;;10.27;100.00
47815;BME280;33579;50.058;18.130;2022-10-31T00:43:19;99622.59;;;10.36;100.00
47815;BME280;33579;50.058;18.130;2022-10-31T00:44:20;99623.31;;;10.38;100.00
47815;BME280;33579;50.058;18.130;2022-10-31T00:45:22;99619.50;;;10.42;100.00
47815;BME280;33579;50.058;18.130;2022-10-31T00:46:23;99615.81;;;10.45;100.00
47815;BME280;33579;50.058;18.130;2022-10-31T00:47:25;99619.72;;;10.39;100.00
47815;BME280;33579;50.058;18.130;2022-10-31T00:48:27;99615.22;;;10.41;100.00
47815;BME280;33579;50.058;18.130;2022-10-31T00:49:29;99614.84;;;10.46;100.00
47815;BME280;33579;50.058;18.130;2022-10-31T00:50:31;99623.19;;;10.51;100.00
47815;BME280;33579;50.058;18.130;2022-10-31T00:51:33;99616.59;;;10.57;100.00
47815;BME280;33579;50.058;18.130;2022-10-31T00:52:35;99620.53;;;10.62;100.00
47815;BME280;33579;50.058;18.130;2022-10-31T00:53:36;99616.34;;;10.60;100.00
47815;BME280;33579;50.058;18.130;2022-10-31T00:54:38;99620.31;;;10.54;100.00
47815;BME280;33579;50.058;18.130;2022-10-31T00:55:40;99624.75;;;10.53;100.00
47815;BME280;33579;50.058;18.130;2022-10-31T00:56:41;99624.28;;;10.48;100.00
47815;BME280;33579;50.058;18.130;2022-10-31T00:57:46;99624.53;;;10.45;100.00
47815;BME280;33579;50.058;18.130;2022-10-31T00:58:48;99620.22;;;10.44;100.00
47815;BME280;33579;50.058;18.130;2022-10-31T00:59:50;99621.63;;;10.48;100.00
47815;BME280;33579;50.058;18.130;2022-10-31T01:00:52;99623.56;;;10.46;100.00
47815;BME280;33579;50.058;18.130;2022-10-31T01:01:54;99623.31;;;10.38;100.00
47815;BME280;33579;50.058;18.130;2022-10-31T01:02:56;99620.69;;;10.38;100.00
47815;BME280;33579;50.058;18.130;2022-10-31T01:03:58;99623.69;;;10.33;100.00
47815;BME280;33579;50.058;18.130;2022-10-31T01:05:00;99622.50;;;10.26;100.00
47815;BME280;33579;50.058;18.130;2022-10-31T01:06:07;99622.13;;;10.31;100.00
47815;BME280;33579;50.058;18.130;2022-10-31T01:07:09;99622.72;;;10.34;100.00
47815;BME280;33579;50.058;18.130;2022-10-31T01:08:11;99618.56;;;10.43;100.00
47815;BME280;33579;50.058;18.130;2022-10-31T01:09:12;99620.69;;;10.49;100.00
47815;BME280;33579;50.058;18.130;2022-10-31T01:10:14;99618.78;;;10.51;100.00
47815;BME280;33579;50.058;18.130;2022-10-31T01:11:20;99618.41;;;10.56;100.00
47815;BME280;33579;50.058;18.130;2022-10-31T01:12:21;99618.97;;;10.60;100.00
47815;BME280;33579;50.058;18.130;2022-10-31T01:13:24;99621.41;;;10.63;100.00
47815;BME280;33579;50.058;18.130;2022-10-31T01:14:26;99626.06;;;10.59;100.00
47815;BME280;33579;50.058;18.130;2022-10-31T01:15:31;99622.38;;;10.50;100.00
47815;BME280;33579;50.058;18.130;2022-10-31T01:16:32;99623.69;;;10.45;100.00
47815;BME280;33579;50.058;18.130;2022-10-31T01:17:34;99618.88;;;10.38;100.00
47815;BME280;33579;50.058;18.130;2022-10-31T01:18:36;99625.00;;;10.39;100.00
47815;BME280;33579;50.058;18.130;2022-10-31T01:19:37;99624.50;;;10.34;100.00
47815;BME280;33579;50.058;18.130;2022-10-31T01:20:39;99622.59;;;10.36;100.00
47815;BME280;33579;50.058;18.130;2022-10-31T01:21:40;99626.66;;;10.40;100.00
47815;BME280;33579;50.058;18.130;2022-10-31T01:22:42;99624.84;;;10.40;100.00
47815;BME280;33579;50.058;18.130;2022-10-31T01:23:44;99624.25;;;10.37;100.00
47815;BME280;33579;50.058;18.130;2022-10-31T01:24:47;99622.47;;;10.37;100.00
47815;BME280;33579;50.058;18.130;2022-10-31T01:25:48;99630.75;;;10.44;100.00
47815;BME280;33579;50.058;18.130;2022-10-31T01:26:50;99625.94;;;10.49;100.00
47815;BME280;33579;50.058;18.130;2022-10-31T01:27:51;99626.44;;;10.54;100.00
47815;BME280;33579;50.058;18.130;2022-10-31T01:28:55;99626.16;;;10.58;100.00
47815;BME280;33579;50.058;18.130;2022-10-31T01:29:57;99616.97;;;10.52;100.00
47815;BME280;33579;50.058;18.130;2022-10-31T01:31:06;99623.19;;;10.51;100.00
47815;BME280;33579;50.058;18.130;2022-10-31T01:32:08;99624.63;;;10.55;100.00
47815;BME280;33579;50.058;18.130;2022-10-31T01:33:10;99629.88;;;10.55;100.00
47815;BME280;33579;50.058;18.130;2022-10-31T01:34:16;99628.34;;;10.52;100.00
47815;BME280;33579;50.058;18.130;2022-10-31T01:35:18;99621.75;;;10.58;100.00
47815;BME280;33579;50.058;18.130;2022-10-31T01:36:31;99621.88;;;10.57;100.00
47815;BME280;33579;50.058;18.130;2022-10-31T01:37:32;99618.66;;;10.53;100.00
47815;BME280;33579;50.058;18.130;2022-10-31T01:38:34;99627.50;;;10.52;100.00
47815;BME280;33579;50.058;18.130;2022-10-31T01:39:36;99621.41;;;10.51;100.00
47815;BME280;33579;50.058;18.130;2022-10-31T01:40:37;99631.69;;;10.54;100.00
47815;BME280;33579;50.058;18.130;2022-10-31T01:41:42;99621.97;;;10.55;100.00
47815;BME280;33579;50.058;18.130;2022-10-31T01:42:44;99619.34;;;10.55;100.00
47815;BME280;33579;50.058;18.130;2022-10-31T01:44:00;99619.34;;;10.55;100.00
47815;BME280;33579;50.058;18.130;2022-10-31T01:45:03;99618.19;;;10.48;100.00
47815;BME280;33579;50.058;18.130;2022-10-31T01:46:05;99620.81;;;10.48;100.00
47815;BME280;33579;50.058;18.130;2022-10-31T01:47:17;99621.53;;;10.50;100.00
47815;BME280;33579;50.058;18.130;2022-10-31T01:48:24;99618.19;;;10.48;100.00
47815;BME280;33579;50.058;18.130;2022-10-31T01:49:36;99622.03;;;10.44;100.00
47815;BME280;33579;50.058;18.130;2022-10-31T01:50:39;99623.91;;;10.42;100.00
47815;BME280;33579;50.058;18.130;2022-10-31T01:51:46;99611.25;;;10.35;100.00
47815;BME280;33579;50.058;18.130;2022-10-31T01:52:49;99620.81;;;10.36;100.00
47815;BME280;33579;50.058;18.130;2022-10-31T01:53:55;99624.03;;;10.40;100.00
47815;BME280;33579;50.058;18.130;2022-10-31T01:55:06;99621.06;;;10.45;100.00
47815;BME280;33579;50.058;18.130;2022-10-31T01:56:10;99625.22;;;10.47;100.00
47815;BME280;33579;50.058;18.130;2022-10-31T01:57:14;99626.09;;;10.48;100.00
47815;BME280;33579;50.058;18.130;2022-10-31T01:58:22;99628.47;;;10.51;100.00
47815;BME280;33579;50.058;18.130;2022-10-31T01:59:27;99623.31;;;10.49;100.00
47815;BME280;33579;50.058;18.130;2022-10-31T02:00:31;99631.34;;;10.48;100.00
47815;BME280;33579;50.058;18.130;2022-10-31T02:01:33;99627.16;;;10.45;100.00
47815;BME280;33579;50.058;18.130;2022-10-31T02:02:35;99632.03;;;10.38;100.00
47815;BME280;33579;50.058;18.130;2022-10-31T02:03:37;99633.97;;;10.36;100.00
47815;BME280;33579;50.058;18.130;2022-10-31T02:04:39;99637.53;;;10.35;100.00
47815;BME280;33579;50.058;18.130;2022-10-31T02:05:42;99635.16;;;10.32;100.00
47815;BME280;33579;50.058;18.130;2022-10-31T02:06:54;99643.16;;;10.31;100.00
47815;BME280;33579;50.058;18.130;2022-10-31T02:08:07;99635.88;;;10.23;100.00
47815;BME280;33579;50.058;18.130;2022-10-31T02:09:11;99629.91;;;10.21;100.00
47815;BME280;33579;50.058;18.130;2022-10-31T02:10:13;99627.75;;;10.26;100.00
47815;BME280;33579;50.058;18.130;2022-10-31T02:11:16;99635.53;;;10.16;100.00
47815;BME280;33579;50.058;18.130;2022-10-31T02:12:17;99631.22;;;10.04;100.00
47815;BME280;33579;50.058;18.130;2022-10-31T02:13:20;99630.50;;;9.90;100.00
47815;BME280;33579;50.058;18.130;2022-10-31T02:14:25;99628.47;;;9.82;100.00
47815;BME280;33579;50.058;18.130;2022-10-31T02:15:28;99629.41;;;9.81;100.00
47815;BME280;33579;50.058;18.130;2022-10-31T02:16:29;99627.63;;;9.82;100.00
47815;BME280;33579;50.058;18.130;2022-10-31T02:17:31;99623.34;;;9.81;100.00
47815;BME280;33579;50.058;18.130;2022-10-31T02:18:34;99624.16;;;9.81;100.00
47815;BME280;33579;50.058;18.130;2022-10-31T02:20:42;99621.41;;;9.72;100.00
47815;BME280;33579;50.058;18.130;2022-10-31T02:21:54;99620.34;;;9.74;100.00
47815;BME280;33579;50.058;18.130;2022-10-31T02:27:16;99620.97;;;9.89;100.00
47815;BME280;33579;50.058;18.130;2022-10-31T02:29:55;99621.44;;;9.94;100.00
47815;BME280;33579;50.058;18.130;2022-10-31T02:33:59;99623.09;;;10.07;100.00
47815;BME280;33579;50.058;18.130;2022-10-31T02:35:14;99622.38;;;10.05;100.00
47815;BME280;33579;50.058;18.130;2022-10-31T02:39:40;99635.41;;;9.83;100.00
47815;BME280;33579;50.058;18.130;2022-10-31T02:42:17;99619.47;;;9.51;100.00
47815;BME280;33579;50.058;18.130;2022-10-31T02:43:42;99623.28;;;9.47;100.00
47815;BME280;33579;50.058;18.130;2022-10-31T02:48:18;99622.72;;;9.66;100.00
47815;BME280;33579;50.058;18.130;2022-10-31T02:49:32;99622.72;;;9.66;100.00
47815;BME280;33579;50.058;18.130;2022-10-31T02:50:38;99624.75;;;9.74;100.00
47815;BME280;33579;50.058;18.130;2022-10-31T02:51:43;99626.78;;;9.81;100.00
47815;BME280;33579;50.058;18.130;2022-10-31T02:52:49;99628.59;;;9.81;100.00
47815;BME280;33579;50.058;18.130;2022-10-31T02:53:51;99625.72;;;9.84;100.00
47815;BME280;33579;50.058;18.130;2022-10-31T02:54:53;99627.16;;;9.88;100.00
47815;BME280;33579;50.058;18.130;2022-10-31T02:55:59;99629.53;;;9.80;100.00
47815;BME280;33579;50.058;18.130;2022-10-31T02:57:04;99636.09;;;9.74;100.00
47815;BME280;33579;50.058;18.130;2022-10-31T02:58:11;99631.69;;;9.63;100.00
47815;BME280;33579;50.058;18.130;2022-10-31T02:59:15;99629.25;;;9.60;100.00
47815;BME280;33579;50.058;18.130;2022-10-31T03:00:18;99637.50;;;9.55;100.00
47815;BME280;33579;50.058;18.130;2022-10-31T03:01:39;99629.13;;;9.50;100.00
47815;BME280;33579;50.058;18.130;2022-10-31T03:08:22;99641.22;;;9.53;100.00
47815;BME280;33579;50.058;18.130;2022-10-31T03:10:40;99641.66;;;9.47;100.00
47815;BME280;33579;50.058;18.130;2022-10-31T03:12:06;99647.25;;;9.42;100.00
47815;BME280;33579;50.058;18.130;2022-10-31T03:14:21;99646.53;;;9.40;100.00
47815;BME280;33579;50.058;18.130;2022-10-31T03:15:37;99646.53;;;9.40;100.00
47815;BME280;33579;50.058;18.130;2022-10-31T03:16:49;99656.44;;;9.36;100.00
47815;BME280;33579;50.058;18.130;2022-10-31T03:18:15;99651.91;;;9.38;100.00
47815;BME280;33579;50.058;18.130;2022-10-31T03:19:33;99654.75;;;9.35;100.00
47815;BME280;33579;50.058;18.130;2022-10-31T03:20:42;99651.31;;;9.35;100.00
47815;BME280;33579;50.058;18.130;2022-10-31T03:21:51;99653.31;;;9.31;100.00
47815;BME280;33579;50.058;18.130;2022-10-31T03:22:57;99656.91;;;9.30;100.00
47815;BME280;33579;50.058;18.130;2022-10-31T03:24:00;99659.91;;;9.37;100.00
47815;BME280;33579;50.058;18.130;2022-10-31T03:25:04;99652.41;;;9.44;100.00
47815;BME280;33579;50.058;18.130;2022-10-31T03:26:08;99655.63;;;9.47;100.00
47815;BME280;33579;50.058;18.130;2022-10-31T03:27:13;99662.31;;;9.51;100.00
47815;BME280;33579;50.058;18.130;2022-10-31T03:28:18;99655.16;;;9.53;100.00
47815;BME280;33579;50.058;18.130;2022-10-31T03:29:27;99654.34;;;9.53;100.00
47815;BME280;33579;50.058;18.130;2022-10-31T03:30:33;99660.19;;;9.56;100.00
47815;BME280;33579;50.058;18.130;2022-10-31T03:31:44;99668.66;;;9.60;100.00
47815;BME280;33579;50.058;18.130;2022-10-31T03:32:51;99660.19;;;9.56;100.00
47815;BME280;33579;50.058;18.130;2022-10-31T03:33:58;99661.94;;;9.45;100.00
47815;BME280;33579;50.058;18.130;2022-10-31T03:35:06;99662.75;;;9.34;100.00
47815;BME280;33579;50.058;18.130;2022-10-31T03:36:11;99668.47;;;9.27;100.00
47815;BME280;33579;50.058;18.130;2022-10-31T03:37:17;99668.69;;;9.24;100.00
47815;BME280;33579;50.058;18.130;2022-10-31T03:38:21;99673.81;;;9.26;100.00
47815;BME280;33579;50.058;18.130;2022-10-31T03:39:24;99667.97;;;9.22;100.00
47815;BME280;33579;50.058;18.130;2022-10-31T03:40:27;99675.34;;;9.17;100.00
47815;BME280;33579;50.058;18.130;2022-10-31T03:41:32;99672.00;;;9.15;100.00
47815;BME280;33579;50.058;18.130;2022-10-31T03:42:41;99672.00;;;9.15;100.00
47815;BME280;33579;50.058;18.130;2022-10-31T03:43:51;99667.59;;;9.16;100.00
47815;BME280;33579;50.058;18.130;2022-10-31T03:45:06;99672.72;;;9.17;100.00
47815;BME280;33579;50.058;18.130;2022-10-31T03:46:10;99664.97;;;9.16;100.00
47815;BME280;33579;50.058;18.130;2022-10-31T03:47:12;99674.84;;;9.12;100.00
47815;BME280;33579;50.058;18.130;2022-10-31T03:48:16;99668.03;;;9.09;100.00
47815;BME280;33579;50.058;18.130;2022-10-31T03:49:19;99673.50;;;9.06;100.00
47815;BME280;33579;50.058;18.130;2022-10-31T03:50:23;99669.44;;;9.02;100.00
47815;BME280;33579;50.058;18.130;2022-10-31T03:51:47;99673.94;;;9.00;100.00
47815;BME280;33579;50.058;18.130;2022-10-31T03:53:04;99672.50;;;8.96;100.00
47815;BME280;33579;50.058;18.130;2022-10-31T03:55:17;99674.06;;;8.98;100.00
47815;BME280;33579;50.058;18.130;2022-10-31T03:56:32;99673.94;;;9.00;100.00
47815;BME280;33579;50.058;18.130;2022-10-31T03:59:41;99672.22;;;8.88;100.00
47815;BME280;33579;50.058;18.130;2022-10-31T04:00:45;99674.09;;;8.85;100.00
47815;BME280;33579;50.058;18.130;2022-10-31T04:01:51;99676.00;;;8.83;100.00
47815;BME280;33579;50.058;18.130;2022-10-31T04:03:02;99678.13;;;8.78;100.00
47815;BME280;33579;50.058;18.130;2022-10-31T04:04:07;99672.88;;;8.78;100.00
47815;BME280;33579;50.058;18.130;2022-10-31T04:05:09;99677.91;;;8.81;100.00
47815;BME280;33579;50.058;18.130;2022-10-31T04:06:14;99677.38;;;8.76;100.00
47815;BME280;33579;50.058;18.130;2022-10-31T04:07:21;99681.91;;;8.74;100.00
47815;BME280;33579;50.058;18.130;2022-10-31T04:08:28;99675.13;;;8.71;100.00
47815;BME280;33579;50.058;18.130;2022-10-31T04:09:33;99677.50;;;8.75;100.00
47815;BME280;33579;50.058;18.130;2022-10-31T04:10:37;99673.63;;;8.80;100.00
47815;BME280;33579;50.058;18.130;2022-10-31T04:11:46;99676.72;;;8.85;100.00
47815;BME280;33579;50.058;18.130;2022-10-31T04:13:17;99685.84;;;8.93;100.00
47815;BME280;33579;50.058;18.130;2022-10-31T04:14:31;99676.50;;;8.89;100.00
47815;BME280;33579;50.058;18.130;2022-10-31T04:15:35;99686.91;;;8.90;100.00
47815;BME280;33579;50.058;18.130;2022-10-31T04:16:41;99683.56;;;8.88;100.00
47815;BME280;33579;50.058;18.130;2022-10-31T04:17:46;99686.19;;;8.88;100.00
47815;BME280;33579;50.058;18.130;2022-10-31T04:18:51;99679.25;;;8.87;100.00
47815;BME280;33579;50.058;18.130;2022-10-31T04:19:53;99679.88;;;8.91;100.00
47815;BME280;33579;50.058;18.130;2022-10-31T04:21:03;99680.38;;;8.96;100.00
47815;BME280;33579;50.058;18.130;2022-10-31T04:22:05;99687.06;;;9.00;100.00
47815;BME280;33579;50.058;18.130;2022-10-31T04:23:24;99682.09;;;9.08;100.00
47815;BME280;33579;50.058;18.130;2022-10-31T04:24:27;99687.75;;;9.15;100.00
47815;BME280;33579;50.058;18.130;2022-10-31T04:25:29;99684.41;;;9.13;100.00
47815;BME280;33579;50.058;18.130;2022-10-31T04:26:32;99687.63;;;9.17;100.00
47815;BME280;33579;50.058;18.130;2022-10-31T04:27:33;99681.19;;;9.21;100.00
47815;BME280;33579;50.058;18.130;2022-10-31T04:28:35;99682.78;;;9.23;100.00
47815;BME280;33579;50.058;18.130;2022-10-31T04:29:36;99684.44;;;9.24;100.00
47815;BME280;33579;50.058;18.130;2022-10-31T04:30:38;99679.44;;;9.21;100.00
47815;BME280;33579;50.058;18.130;2022-10-31T04:31:39;99691.59;;;9.22;100.00
47815;BME280;33579;50.058;18.130;2022-10-31T04:32:41;99686.94;;;9.26;100.00
47815;BME280;33579;50.058;18.130;2022-10-31T04:33:42;99682.19;;;9.31;100.00
47815;BME280;33579;50.058;18.130;2022-10-31T04:34:45;99687.22;;;9.34;100.00
47815;BME280;33579;50.058;18.130;2022-10-31T04:35:47;99684.97;;;9.41;100.00
47815;BME280;33579;50.058;18.130;2022-10-31T04:36:49;99686.72;;;9.29;100.00
47815;BME280;33579;50.058;18.130;2022-10-31T04:37:51;99686.91;;;9.14;100.00
47815;BME280;33579;50.058;18.130;2022-10-31T04:38:53;99682.19;;;9.07;100.00
47815;BME280;33579;50.058;18.130;2022-10-31T04:40:11;99694.50;;;9.06;100.00
47815;BME280;33579;50.058;18.130;2022-10-31T04:41:44;99686.72;;;9.05;100.00
47815;BME280;33579;50.058;18.130;2022-10-31T04:42:48;99695.47;;;9.05;100.00
47815;BME280;33579;50.058;18.130;2022-10-31T04:43:49;99694.41;;;9.08;100.00
47815;BME280;33579;50.058;18.130;2022-10-31T04:44:51;99701.53;;;9.06;100.00
47815;BME280;33579;50.058;18.130;2022-10-31T04:45:53;99706.78;;;9.06;100.00
47815;BME280;33579;50.058;18.130;2022-10-31T04:46:54;99693.66;;;9.06;100.00
47815;BME280;33579;50.058;18.130;2022-10-31T04:47:56;99696.19;;;9.07;100.00
47815;BME280;33579;50.058;18.130;2022-10-31T04:48:58;99700.69;;;9.05;100.00
47815;BME280;33579;50.058;18.130;2022-10-31T04:50:01;99694.41;;;9.08;100.00
47815;BME280;33579;50.058;18.130;2022-10-31T04:51:03;99701.75;;;9.03;100.00
47815;BME280;33579;50.058;18.130;2022-10-31T04:52:05;99696.50;;;9.03;100.00
47815;BME280;33579;50.058;18.130;2022-10-31T04:53:07;99697.47;;;9.02;100.00
47815;BME280;33579;50.058;18.130;2022-10-31T04:54:18;99703.03;;;8.97;100.00
47815;BME280;33579;50.058;18.130;2022-10-31T04:55:45;99700.94;;;9.02;100.00
47815;BME280;33579;50.058;18.130;2022-10-31T04:56:52;99699.75;;;9.06;100.00
47815;BME280;33579;50.058;18.130;2022-10-31T04:57:56;99701.53;;;9.06;100.00
47815;BME280;33579;50.058;18.130;2022-10-31T04:59:00;99704.47;;;9.01;100.00
47815;BME280;33579;50.058;18.130;2022-10-31T05:00:09;99701.38;;;8.96;100.00
47815;BME280;33579;50.058;18.130;2022-10-31T05:01:11;99704.72;;;8.98;100.00
47815;BME280;33579;50.058;18.130;2022-10-31T05:02:14;99708.28;;;8.97;100.00
47815;BME280;33579;50.058;18.130;2022-10-31T05:03:26;99708.50;;;8.94;100.00
47815;BME280;33579;50.058;18.130;2022-10-31T05:04:27;99702.53;;;8.92;100.00
47815;BME280;33579;50.058;18.130;2022-10-31T05:05:30;99701.81;;;8.90;100.00
47815;BME280;33579;50.058;18.130;2022-10-31T05:06:34;99707.72;;;8.80;100.00
47815;BME280;33579;50.058;18.130;2022-10-31T05:07:43;99699.94;;;8.79;100.00
47815;BME280;33579;50.058;18.130;2022-10-31T05:08:45;99695.03;;;8.74;100.00
47815;BME280;33579;50.058;18.130;2022-10-31T05:09:47;99695.88;;;8.75;100.00
47815;BME280;33579;50.058;18.130;2022-10-31T05:10:48;99696.81;;;8.74;100.00
47815;BME280;33579;50.058;18.130;2022-10-31T05:11:50;99699.13;;;8.78;100.00
47815;BME280;33579;50.058;18.130;2022-10-31T05:13:10;99708.34;;;8.84;100.00
47815;BME280;33579;50.058;18.130;2022-10-31T05:14:30;99702.88;;;8.87;100.00
47815;BME280;33579;50.058;18.130;2022-10-31T05:15:50;99707.06;;;8.90;100.00
47815;BME280;33579;50.058;18.130;2022-10-31T05:17:24;99703.81;;;8.86;100.00
47815;BME280;33579;50.058;18.130;2022-10-31T05:18:44;99703.19;;;8.82;100.00
47815;BME280;33579;50.058;18.130;2022-10-31T05:20:04;99704.25;;;8.80;100.00
47815;BME280;33579;50.058;18.130;2022-10-31T05:21:34;99701.84;;;8.77;100.00
47815;BME280;33579;50.058;18.130;2022-10-31T05:22:41;99707.00;;;8.78;100.00
47815;BME280;33579;50.058;18.130;2022-10-31T05:23:42;99709.41;;;8.81;100.00
47815;BME280;33579;50.058;18.130;2022-10-31T05:24:49;99706.88;;;8.80;100.00
47815;BME280;33579;50.058;18.130;2022-10-31T05:25:50;99709.63;;;8.78;100.00
47815;BME280;33579;50.058;18.130;2022-10-31T05:26:52;99709.63;;;8.78;100.00
47815;BME280;33579;50.058;18.130;2022-10-31T05:27:55;99711.09;;;8.69;100.00
47815;BME280;33579;50.058;18.130;2022-10-31T05:28:57;99711.00;;;8.71;100.00
47815;BME280;33579;50.058;18.130;2022-10-31T05:29:58;99707.53;;;8.70;100.00
47815;BME280;33579;50.058;18.130;2022-10-31T05:31:05;99712.13;;;8.80;100.00
47815;BME280;33579;50.058;18.130;2022-10-31T05:32:07;99711.06;;;8.82;100.00
47815;BME280;33579;50.058;18.130;2022-10-31T05:33:43;99716.97;;;8.73;100.00
47815;BME280;33579;50.058;18.130;2022-10-31T05:35:04;99717.19;;;8.70;100.00
47815;BME280;33579;50.058;18.130;2022-10-31T05:36:25;99724.59;;;8.76;100.00
47815;BME280;33579;50.058;18.130;2022-10-31T05:37:53;99717.25;;;8.81;100.00
47815;BME280;33579;50.058;18.130;2022-10-31T05:38:55;99725.38;;;8.78;100.00
47815;BME280;33579;50.058;18.130;2022-10-31T05:40:04;99719.59;;;8.73;100.00
47815;BME280;33579;50.058;18.130;2022-10-31T05:41:09;99724.59;;;8.76;100.00
47815;BME280;33579;50.058;18.130;2022-10-31T05:42:12;99718.94;;;8.82;100.00
47815;BME280;33579;50.058;18.130;2022-10-31T05:43:14;99717.75;;;8.86;100.00
47815;BME280;33579;50.058;18.130;2022-10-31T05:44:16;99727.03;;;8.79;100.00
47815;BME280;33579;50.058;18.130;2022-10-31T05:45:43;99727.69;;;8.70;100.00
47815;BME280;33579;50.058;18.130;2022-10-31T05:47:03;99728.41;;;8.72;100.00
47815;BME280;33579;50.058;18.130;2022-10-31T05:48:24;99730.06;;;8.73;100.00
47815;BME280;33579;50.058;18.130;2022-10-31T05:49:46;99726.50;;;8.74;100.00
47815;BME280;33579;50.058;18.130;2022-10-31T05:51:06;99733.00;;;8.81;100.00
47815;BME280;33579;50.058;18.130;2022-10-31T05:52:07;99731.97;;;8.84;100.00
47815;BME280;33579;50.058;18.130;2022-10-31T05:53:19;99732.06;;;8.82;100.00
47815;BME280;33579;50.058;18.130;2022-10-31T05:54:21;99736.69;;;8.79;100.00
47815;BME280;33579;50.058;18.130;2022-10-31T05:55:22;99737.53;;;8.79;100.00
47815;BME280;33579;50.058;18.130;2022-10-31T05:56:42;99740.88;;;8.81;100.00
47815;BME280;33579;50.058;18.130;2022-10-31T05:57:43;99736.44;;;8.82;100.00
47815;BME280;33579;50.058;18.130;2022-10-31T05:58:45;99751.06;;;8.86;100.00
47815;BME280;33579;50.058;18.130;2022-10-31T05:59:47;99744.72;;;8.89;100.00
47815;BME280;33579;50.058;18.130;2022-10-31T06:00:56;99740.63;;;8.97;100.00
47815;BME280;33579;50.058;18.130;2022-10-31T06:01:58;99734.94;;;9.04;100.00
47815;BME280;33579;50.058;18.130;2022-10-31T06:03:22;99739.63;;;9.11;100.00
47815;BME280;33579;50.058;18.130;2022-10-31T06:04:28;99743.50;;;9.19;100.00
47815;BME280;33579;50.058;18.130;2022-10-31T06:05:30;99745.78;;;9.23;100.00
47815;BME280;33579;50.058;18.130;2022-10-31T06:06:32;99740.41;;;9.25;100.00
47815;BME280;33579;50.058;18.130;2022-10-31T06:07:34;99738.06;;;9.33;100.00
47815;BME280;33579;50.058;18.130;2022-10-31T06:08:37;99735.72;;;9.41;100.00
47815;BME280;33579;50.058;18.130;2022-10-31T06:09:42;99742.69;;;9.54;100.00
47815;BME280;33579;50.058;18.130;2022-10-31T06:10:44;99737.59;;;9.64;100.00
47815;BME280;33579;50.058;18.130;2022-10-31T06:11:47;99741.66;;;9.68;100.00